sensor_id;sensor_type;location;lat;lon;timestamp;P1;durP1;ratioP1;P2;durP2;ratioP2
16478;SDS011;8350;52.316;10.530;2023-04-24T00:01:27;1.55;;;1.27;;
16478;SDS011;8350;52.316;10.530;2023-04-24T00:03:57;2.80;;;1.45;;
16478;SDS011;8350;52.316;10.530;2023-04-24T00:06:24;1.20;;;1.00;;
16478;SDS011;8350;52.316;10.530;2023-04-24T00:08:58;1.33;;;1.23;;
16478;SDS011;8350;52.316;10.530;2023-04-24T00:11:25;2.67;;;1.20;;
16478;SDS011;8350;52.316;10.530;2023-04-24T00:13:56;2.13;;;1.40;;
16478;SDS011;8350;52.316;10.530;2023-04-24T00:16:23;1.40;;;1.20;;
16478;SDS011;8350;52.316;10.530;2023-04-24T00:18:52;1.60;;;1.50;;
16478;SDS011;8350;52.316;10.530;2023-04-24T00:21:21;1.77;;;1.20;;
16478;SDS011;8350;52.316;10.530;2023-04-24T00:23:53;1.33;;;1.10;;
16478;SDS011;8350;52.316;10.530;2023-04-24T00:26:20;1.98;;;1.30;;
16478;SDS011;8350;52.316;10.530;2023-04-24T00:28:48;1.50;;;1.33;;
16478;SDS011;8350;52.316;10.530;2023-04-24T00:31:16;2.85;;;1.45;;
16478;SDS011;8350;52.316;10.530;2023-04-24T00:33:43;1.25;;;1.15;;
16478;SDS011;8350;52.316;10.530;2023-04-24T00:36:10;1.52;;;1.35;;
16478;SDS011;8350;52.316;10.530;2023-04-24T00:38:36;1.92;;;1.50;;
16478;SDS011;8350;52.316;10.530;2023-04-24T00:41:03;2.42;;;1.30;;
16478;SDS011;8350;52.316;10.530;2023-04-24T00:43:30;2.03;;;1.20;;
16478;SDS011;8350;52.316;10.530;2023-04-24T00:45:57;2.20;;;1.50;;
16478;SDS011;8350;52.316;10.530;2023-04-24T00:48:26;2.85;;;1.70;;
16478;SDS011;8350;52.316;10.530;2023-04-24T00:50:53;2.05;;;1.60;;
16478;SDS011;8350;52.316;10.530;2023-04-24T00:53:20;3.67;;;1.92;;
16478;SDS011;8350;52.316;10.530;2023-04-24T00:55:47;1.67;;;1.02;;
16478;SDS011;8350;52.316;10.530;2023-04-24T00:58:14;1.80;;;1.10;;
16478;SDS011;8350;52.316;10.530;2023-04-24T01:00:41;1.20;;;1.10;;
16478;SDS011;8350;52.316;10.530;2023-04-24T01:03:08;1.20;;;1.10;;
16478;SDS011;8350;52.316;10.530;2023-04-24T01:05:37;1.73;;;0.93;;
16478;SDS011;8350;52.316;10.530;2023-04-24T01:08:04;1.65;;;1.08;;
16478;SDS011;8350;52.316;10.530;2023-04-24T01:10:36;1.60;;;1.10;;
16478;SDS011;8350;52.316;10.530;2023-04-24T01:13:06;2.00;;;1.23;;
16478;SDS011;8350;52.316;10.530;2023-04-24T01:15:35;1.02;;;1.02;;
16478;SDS011;8350;52.316;10.530;2023-04-24T01:18:02;1.23;;;0.90;;
16478;SDS011;8350;52.316;10.530;2023-04-24T01:20:29;0.90;;;0.90;;
16478;SDS011;8350;52.316;10.530;2023-04-24T01:22:58;0.90;;;0.90;;
16478;SDS011;8350;52.316;10.530;2023-04-24T01:25:25;0.90;;;0.90;;
16478;SDS011;8350;52.316;10.530;2023-04-24T01:27:54;2.60;;;1.30;;
16478;SDS011;8350;52.316;10.530;2023-04-24T01:30:20;2.17;;;1.20;;
16478;SDS011;8350;52.316;10.530;2023-04-24T01:32:47;1.20;;;1.10;;
16478;SDS011;8350;52.316;10.530;2023-04-24T01:35:14;1.05;;;0.98;;
16478;SDS011;8350;52.316;10.530;2023-04-24T01:37:41;1.83;;;1.25;;
16478;SDS011;8350;52.316;10.530;2023-04-24T01:40:10;2.83;;;1.25;;
16478;SDS011;8350;52.316;10.530;2023-04-24T01:42:37;2.17;;;0.90;;
16478;SDS011;8350;52.316;10.530;2023-04-24T01:45:07;1.42;;;1.10;;
16478;SDS011;8350;52.316;10.530;2023-04-24T01:47:36;2.40;;;1.15;;
16478;SDS011;8350;52.316;10.530;2023-04-24T01:50:04;1.13;;;0.98;;
16478;SDS011;8350;52.316;10.530;2023-04-24T01:52:32;1.23;;;1.13;;
16478;SDS011;8350;52.316;10.530;2023-04-24T01:55:01;1.45;;;1.15;;
16478;SDS011;8350;52.316;10.530;2023-04-24T01:57:30;1.13;;;0.85;;
16478;SDS011;8350;52.316;10.530;2023-04-24T01:59:57;1.88;;;1.10;;
16478;SDS011;8350;52.316;10.530;2023-04-24T02:02:24;2.30;;;1.50;;
16478;SDS011;8350;52.316;10.530;2023-04-24T02:04:52;1.67;;;1.10;;
16478;SDS011;8350;52.316;10.530;2023-04-24T02:07:19;1.38;;;0.90;;
16478;SDS011;8350;52.316;10.530;2023-04-24T02:09:46;1.77;;;1.00;;
16478;SDS011;8350;52.316;10.530;2023-04-24T02:12:13;1.42;;;1.17;;
16478;SDS011;8350;52.316;10.530;2023-04-24T02:14:41;1.25;;;0.90;;
16478;SDS011;8350;52.316;10.530;2023-04-24T02:17:08;1.95;;;1.10;;
16478;SDS011;8350;52.316;10.530;2023-04-24T02:19:38;1.88;;;1.02;;
16478;SDS011;8350;52.316;10.530;2023-04-24T02:22:08;2.22;;;1.10;;
16478;SDS011;8350;52.316;10.530;2023-04-24T02:24:35;1.63;;;0.90;;
16478;SDS011;8350;52.316;10.530;2023-04-24T02:27:02;1.65;;;1.38;;
16478;SDS011;8350;52.316;10.530;2023-04-24T02:29:29;1.13;;;0.90;;
16478;SDS011;8350;52.316;10.530;2023-04-24T02:31:58;1.48;;;0.90;;
16478;SDS011;8350;52.316;10.530;2023-04-24T02:34:24;1.50;;;1.05;;
16478;SDS011;8350;52.316;10.530;2023-04-24T02:36:51;3.25;;;1.17;;
16478;SDS011;8350;52.316;10.530;2023-04-24T02:39:20;1.23;;;1.05;;
16478;SDS011;8350;52.316;10.530;2023-04-24T02:41:47;1.23;;;1.00;;
16478;SDS011;8350;52.316;10.530;2023-04-24T02:44:13;0.93;;;0.93;;
16478;SDS011;8350;52.316;10.530;2023-04-24T02:46:40;1.27;;;1.17;;
16478;SDS011;8350;52.316;10.530;2023-04-24T02:49:08;1.45;;;1.27;;
16478;SDS011;8350;52.316;10.530;2023-04-24T02:51:36;1.25;;;1.15;;
16478;SDS011;8350;52.316;10.530;2023-04-24T02:54:06;0.90;;;0.90;;
16478;SDS011;8350;52.316;10.530;2023-04-24T02:56:33;2.28;;;1.20;;
16478;SDS011;8350;52.316;10.530;2023-04-24T02:59:00;1.30;;;1.05;;
16478;SDS011;8350;52.316;10.530;2023-04-24T03:01:26;1.00;;;0.90;;
16478;SDS011;8350;52.316;10.530;2023-04-24T03:03:53;1.70;;;1.17;;
16478;SDS011;8350;52.316;10.530;2023-04-24T03:06:21;1.35;;;1.10;;
16478;SDS011;8350;52.316;10.530;2023-04-24T03:08:48;2.25;;;1.10;;
16478;SDS011;8350;52.316;10.530;2023-04-24T03:11:16;1.50;;;1.20;;
16478;SDS011;8350;52.316;10.530;2023-04-24T03:13:43;2.95;;;1.30;;
16478;SDS011;8350;52.316;10.530;2023-04-24T03:16:09;3.33;;;1.13;;
16478;SDS011;8350;52.316;10.530;2023-04-24T03:18:36;1.77;;;1.20;;
16478;SDS011;8350;52.316;10.530;2023-04-24T03:21:06;1.58;;;1.08;;
16478;SDS011;8350;52.316;10.530;2023-04-24T03:23:34;2.90;;;1.10;;
16478;SDS011;8350;52.316;10.530;2023-04-24T03:26:01;1.70;;;0.98;;
16478;SDS011;8350;52.316;10.530;2023-04-24T03:28:27;1.00;;;0.85;;
16478;SDS011;8350;52.316;10.530;2023-04-24T03:30:54;1.10;;;1.00;;
16478;SDS011;8350;52.316;10.530;2023-04-24T03:33:21;2.10;;;1.08;;
16478;SDS011;8350;52.316;10.530;2023-04-24T03:35:48;1.23;;;0.93;;
16478;SDS011;8350;52.316;10.530;2023-04-24T03:38:14;1.33;;;0.85;;
16478;SDS011;8350;52.316;10.530;2023-04-24T03:40:43;1.40;;;0.90;;
16478;SDS011;8350;52.316;10.530;2023-04-24T03:43:09;1.38;;;1.13;;
16478;SDS011;8350;52.316;10.530;2023-04-24T03:45:36;1.13;;;0.82;;
16478;SDS011;8350;52.316;10.530;2023-04-24T03:48:03;1.70;;;0.80;;
16478;SDS011;8350;52.316;10.530;2023-04-24T03:50:30;2.35;;;0.90;;
16478;SDS011;8350;52.316;10.530;2023-04-24T03:52:57;0.98;;;0.90;;
16478;SDS011;8350;52.316;10.530;2023-04-24T03:55:24;0.85;;;0.70;;
16478;SDS011;8350;52.316;10.530;2023-04-24T03:57:54;1.00;;;0.90;;
16478;SDS011;8350;52.316;10.530;2023-04-24T04:00:21;1.10;;;0.90;;
16478;SDS011;8350;52.316;10.530;2023-04-24T04:02:48;1.98;;;0.82;;
16478;SDS011;8350;52.316;10.530;2023-04-24T04:05:15;2.45;;;0.90;;
16478;SDS011;8350;52.316;10.530;2023-04-24T04:07:42;0.80;;;0.80;;
16478;SDS011;8350;52.316;10.530;2023-04-24T04:10:09;3.30;;;0.98;;
16478;SDS011;8350;52.316;10.530;2023-04-24T04:12:36;1.10;;;1.00;;
16478;SDS011;8350;52.316;10.530;2023-04-24T04:15:04;0.77;;;0.70;;
16478;SDS011;8350;52.316;10.530;2023-04-24T04:17:32;1.33;;;0.90;;
16478;SDS011;8350;52.316;10.530;2023-04-24T04:19:59;0.98;;;0.98;;
16478;SDS011;8350;52.316;10.530;2023-04-24T04:22:26;1.33;;;1.10;;
16478;SDS011;8350;52.316;10.530;2023-04-24T04:24:53;1.23;;;1.10;;
16478;SDS011;8350;52.316;10.530;2023-04-24T04:27:19;2.17;;;0.90;;
16478;SDS011;8350;52.316;10.530;2023-04-24T04:29:49;3.28;;;0.90;;
16478;SDS011;8350;52.316;10.530;2023-04-24T04:32:17;1.52;;;0.88;;
16478;SDS011;8350;52.316;10.530;2023-04-24T04:34:44;0.60;;;0.60;;
16478;SDS011;8350;52.316;10.530;2023-04-24T04:37:11;1.23;;;1.13;;
16478;SDS011;8350;52.316;10.530;2023-04-24T04:39:39;2.17;;;1.10;;
16478;SDS011;8350;52.316;10.530;2023-04-24T04:42:06;1.02;;;0.93;;
16478;SDS011;8350;52.316;10.530;2023-04-24T04:44:32;1.13;;;0.85;;
16478;SDS011;8350;52.316;10.530;2023-04-24T04:47:03;1.75;;;0.80;;
16478;SDS011;8350;52.316;10.530;2023-04-24T04:49:33;1.77;;;0.90;;
16478;SDS011;8350;52.316;10.530;2023-04-24T04:52:03;1.23;;;1.00;;
16478;SDS011;8350;52.316;10.530;2023-04-24T04:54:29;0.90;;;0.68;;
16478;SDS011;8350;52.316;10.530;2023-04-24T04:56:58;1.10;;;1.00;;
16478;SDS011;8350;52.316;10.530;2023-04-24T04:59:25;2.05;;;0.90;;
16478;SDS011;8350;52.316;10.530;2023-04-24T05:01:52;1.10;;;1.00;;
16478;SDS011;8350;52.316;10.530;2023-04-24T05:04:22;1.23;;;1.10;;
16478;SDS011;8350;52.316;10.530;2023-04-24T05:06:51;1.40;;;1.10;;
16478;SDS011;8350;52.316;10.530;2023-04-24T05:09:18;1.10;;;1.00;;
16478;SDS011;8350;52.316;10.530;2023-04-24T05:11:47;2.42;;;1.25;;
16478;SDS011;8350;52.316;10.530;2023-04-24T05:14:14;1.55;;;0.88;;
16478;SDS011;8350;52.316;10.530;2023-04-24T05:16:42;0.88;;;0.88;;
16478;SDS011;8350;52.316;10.530;2023-04-24T05:19:09;1.70;;;1.17;;
16478;SDS011;8350;52.316;10.530;2023-04-24T05:21:37;1.40;;;0.90;;
16478;SDS011;8350;52.316;10.530;2023-04-24T05:24:05;1.27;;;1.02;;
16478;SDS011;8350;52.316;10.530;2023-04-24T05:26:32;1.35;;;1.00;;
16478;SDS011;8350;52.316;10.530;2023-04-24T05:29:00;1.48;;;1.38;;
16478;SDS011;8350;52.316;10.530;2023-04-24T05:31:27;0.98;;;0.82;;
16478;SDS011;8350;52.316;10.530;2023-04-24T05:33:54;2.75;;;1.00;;
16478;SDS011;8350;52.316;10.530;2023-04-24T05:36:21;1.40;;;0.98;;
16478;SDS011;8350;52.316;10.530;2023-04-24T05:38:47;1.75;;;1.13;;
16478;SDS011;8350;52.316;10.530;2023-04-24T05:41:16;1.60;;;1.08;;
16478;SDS011;8350;52.316;10.530;2023-04-24T05:43:49;1.75;;;1.15;;
16478;SDS011;8350;52.316;10.530;2023-04-24T05:46:16;1.45;;;0.93;;
16478;SDS011;8350;52.316;10.530;2023-04-24T05:48:43;1.65;;;1.13;;
16478;SDS011;8350;52.316;10.530;2023-04-24T05:51:09;3.53;;;1.55;;
16478;SDS011;8350;52.316;10.530;2023-04-24T05:53:36;3.63;;;1.35;;
16478;SDS011;8350;52.316;10.530;2023-04-24T05:56:03;4.07;;;1.90;;
16478;SDS011;8350;52.316;10.530;2023-04-24T05:58:32;4.82;;;1.60;;
16478;SDS011;8350;52.316;10.530;2023-04-24T06:00:59;1.95;;;1.35;;
16478;SDS011;8350;52.316;10.530;2023-04-24T06:03:26;1.95;;;1.30;;
16478;SDS011;8350;52.316;10.530;2023-04-24T06:05:53;2.08;;;1.45;;
16478;SDS011;8350;52.316;10.530;2023-04-24T06:08:20;3.10;;;1.50;;
16478;SDS011;8350;52.316;10.530;2023-04-24T06:10:47;2.20;;;1.20;;
16478;SDS011;8350;52.316;10.530;2023-04-24T06:13:14;1.40;;;1.20;;
16478;SDS011;8350;52.316;10.530;2023-04-24T06:15:42;2.25;;;1.20;;
16478;SDS011;8350;52.316;10.530;2023-04-24T06:18:10;1.80;;;1.40;;
16478;SDS011;8350;52.316;10.530;2023-04-24T06:20:37;2.95;;;1.45;;
16478;SDS011;8350;52.316;10.530;2023-04-24T06:23:04;2.28;;;1.23;;
16478;SDS011;8350;52.316;10.530;2023-04-24T06:25:31;4.30;;;1.23;;
16478;SDS011;8350;52.316;10.530;2023-04-24T06:27:59;2.08;;;1.30;;
16478;SDS011;8350;52.316;10.530;2023-04-24T06:30:26;1.15;;;1.02;;
16478;SDS011;8350;52.316;10.530;2023-04-24T06:32:54;2.38;;;1.33;;
16478;SDS011;8350;52.316;10.530;2023-04-24T06:35:21;1.55;;;1.00;;
16478;SDS011;8350;52.316;10.530;2023-04-24T06:37:48;2.22;;;1.20;;
16478;SDS011;8350;52.316;10.530;2023-04-24T06:40:15;3.10;;;1.33;;
16478;SDS011;8350;52.316;10.530;2023-04-24T06:42:43;1.10;;;0.90;;
16478;SDS011;8350;52.316;10.530;2023-04-24T06:45:10;2.28;;;1.38;;
16478;SDS011;8350;52.316;10.530;2023-04-24T06:47:37;1.25;;;1.08;;
16478;SDS011;8350;52.316;10.530;2023-04-24T06:50:06;2.25;;;1.05;;
16478;SDS011;8350;52.316;10.530;2023-04-24T06:52:33;1.50;;;0.90;;
16478;SDS011;8350;52.316;10.530;2023-04-24T06:55:00;2.67;;;1.02;;
16478;SDS011;8350;52.316;10.530;2023-04-24T06:57:28;2.33;;;0.73;;
16478;SDS011;8350;52.316;10.530;2023-04-24T06:59:59;1.65;;;0.80;;
16478;SDS011;8350;52.316;10.530;2023-04-24T07:02:26;1.85;;;0.85;;
16478;SDS011;8350;52.316;10.530;2023-04-24T07:04:53;1.73;;;0.60;;
16478;SDS011;8350;52.316;10.530;2023-04-24T07:07:21;3.63;;;1.05;;
16478;SDS011;8350;52.316;10.530;2023-04-24T07:09:48;1.52;;;0.90;;
16478;SDS011;8350;52.316;10.530;2023-04-24T07:12:15;1.33;;;0.82;;
16478;SDS011;8350;52.316;10.530;2023-04-24T07:14:45;1.48;;;0.90;;
16478;SDS011;8350;52.316;10.530;2023-04-24T07:17:12;1.20;;;0.90;;
16478;SDS011;8350;52.316;10.530;2023-04-24T07:19:39;2.40;;;1.13;;
16478;SDS011;8350;52.316;10.530;2023-04-24T07:22:06;1.75;;;1.15;;
16478;SDS011;8350;52.316;10.530;2023-04-24T07:24:35;0.95;;;0.88;;
16478;SDS011;8350;52.316;10.530;2023-04-24T07:27:01;1.17;;;0.85;;
16478;SDS011;8350;52.316;10.530;2023-04-24T07:29:28;2.25;;;1.25;;
16478;SDS011;8350;52.316;10.530;2023-04-24T07:31:57;0.98;;;0.75;;
16478;SDS011;8350;52.316;10.530;2023-04-24T07:34:24;3.63;;;1.25;;
16478;SDS011;8350;52.316;10.530;2023-04-24T07:36:52;2.67;;;1.20;;
16478;SDS011;8350;52.316;10.530;2023-04-24T07:39:19;2.42;;;1.10;;
16478;SDS011;8350;52.316;10.530;2023-04-24T07:41:47;1.73;;;1.38;;
16478;SDS011;8350;52.316;10.530;2023-04-24T07:44:14;1.58;;;1.27;;
16478;SDS011;8350;52.316;10.530;2023-04-24T07:46:41;1.33;;;1.23;;
16478;SDS011;8350;52.316;10.530;2023-04-24T07:49:20;1.60;;;1.50;;
16478;SDS011;8350;52.316;10.530;2023-04-24T07:51:47;2.17;;;1.50;;
16478;SDS011;8350;52.316;10.530;2023-04-24T07:54:27;1.38;;;1.27;;
16478;SDS011;8350;52.316;10.530;2023-04-24T07:57:08;2.88;;;1.70;;
16478;SDS011;8350;52.316;10.530;2023-04-24T07:59:38;2.00;;;1.52;;
16478;SDS011;8350;52.316;10.530;2023-04-24T08:02:05;2.00;;;1.90;;
16478;SDS011;8350;52.316;10.530;2023-04-24T08:04:32;2.42;;;1.80;;
16478;SDS011;8350;52.316;10.530;2023-04-24T08:06:59;2.47;;;1.67;;
16478;SDS011;8350;52.316;10.530;2023-04-24T08:09:28;1.70;;;1.30;;
16478;SDS011;8350;52.316;10.530;2023-04-24T08:11:55;2.85;;;1.60;;
16478;SDS011;8350;52.316;10.530;2023-04-24T08:14:24;3.20;;;2.00;;
16478;SDS011;8350;52.316;10.530;2023-04-24T08:16:53;2.20;;;2.00;;
16478;SDS011;8350;52.316;10.530;2023-04-24T08:19:20;3.38;;;2.25;;
16478;SDS011;8350;52.316;10.530;2023-04-24T08:21:47;2.40;;;2.08;;
16478;SDS011;8350;52.316;10.530;2023-04-24T08:24:14;1.92;;;1.83;;
16478;SDS011;8350;52.316;10.530;2023-04-24T08:26:41;2.47;;;2.28;;
16478;SDS011;8350;52.316;10.530;2023-04-24T08:29:08;4.40;;;1.98;;
16478;SDS011;8350;52.316;10.530;2023-04-24T08:31:36;2.80;;;2.58;;
16478;SDS011;8350;52.316;10.530;2023-04-24T08:34:08;2.15;;;2.00;;
16478;SDS011;8350;52.316;10.530;2023-04-24T08:36:35;2.75;;;2.28;;
16478;SDS011;8350;52.316;10.530;2023-04-24T08:39:02;2.33;;;2.20;;
16478;SDS011;8350;52.316;10.530;2023-04-24T08:41:31;2.25;;;2.05;;
16478;SDS011;8350;52.316;10.530;2023-04-24T08:44:01;2.30;;;2.10;;
16478;SDS011;8350;52.316;10.530;2023-04-24T08:46:28;3.03;;;2.50;;
16478;SDS011;8350;52.316;10.530;2023-04-24T08:48:58;2.70;;;2.50;;
16478;SDS011;8350;52.316;10.530;2023-04-24T08:51:26;3.15;;;2.92;;
16478;SDS011;8350;52.316;10.530;2023-04-24T08:53:56;3.20;;;2.75;;
16478;SDS011;8350;52.316;10.530;2023-04-24T08:56:23;2.95;;;2.75;;
16478;SDS011;8350;52.316;10.530;2023-04-24T08:58:51;3.28;;;2.60;;
16478;SDS011;8350;52.316;10.530;2023-04-24T09:01:18;3.42;;;2.90;;
16478;SDS011;8350;52.316;10.530;2023-04-24T09:03:46;3.50;;;3.20;;
16478;SDS011;8350;52.316;10.530;2023-04-24T09:06:19;3.50;;;3.20;;
16478;SDS011;8350;52.316;10.530;2023-04-24T09:08:47;3.78;;;3.47;;
16478;SDS011;8350;52.316;10.530;2023-04-24T09:11:16;3.78;;;3.47;;
16478;SDS011;8350;52.316;10.530;2023-04-24T09:13:43;4.25;;;3.95;;
16478;SDS011;8350;52.316;10.530;2023-04-24T09:16:11;4.10;;;3.70;;
16478;SDS011;8350;52.316;10.530;2023-04-24T09:18:39;5.57;;;3.65;;
16478;SDS011;8350;52.316;10.530;2023-04-24T09:21:07;4.65;;;4.03;;
16478;SDS011;8350;52.316;10.530;2023-04-24T09:23:36;3.83;;;3.53;;
16478;SDS011;8350;52.316;10.530;2023-04-24T09:26:03;4.47;;;4.07;;
16478;SDS011;8350;52.316;10.530;2023-04-24T09:28:31;4.43;;;4.03;;
16478;SDS011;8350;52.316;10.530;2023-04-24T09:31:04;4.63;;;4.22;;
16478;SDS011;8350;52.316;10.530;2023-04-24T09:33:36;4.82;;;4.30;;
16478;SDS011;8350;52.316;10.530;2023-04-24T09:36:03;5.50;;;4.50;;
16478;SDS011;8350;52.316;10.530;2023-04-24T09:38:32;4.60;;;3.90;;
16478;SDS011;8350;52.316;10.530;2023-04-24T09:41:02;4.13;;;3.72;;
16478;SDS011;8350;52.316;10.530;2023-04-24T09:43:31;3.47;;;3.17;;
16478;SDS011;8350;52.316;10.530;2023-04-24T09:45:58;3.25;;;2.95;;
16478;SDS011;8350;52.316;10.530;2023-04-24T09:48:31;2.90;;;2.63;;
16478;SDS011;8350;52.316;10.530;2023-04-24T09:50:59;3.58;;;3.00;;
16478;SDS011;8350;52.316;10.530;2023-04-24T09:53:27;3.22;;;2.75;;
16478;SDS011;8350;52.316;10.530;2023-04-24T09:55:54;3.45;;;2.63;;
16478;SDS011;8350;52.316;10.530;2023-04-24T09:58:25;2.60;;;2.03;;
16478;SDS011;8350;52.316;10.530;2023-04-24T10:00:55;3.80;;;2.30;;
16478;SDS011;8350;52.316;10.530;2023-04-24T10:03:23;2.60;;;2.40;;
16478;SDS011;8350;52.316;10.530;2023-04-24T10:05:52;2.60;;;2.40;;
16478;SDS011;8350;52.316;10.530;2023-04-24T10:08:20;2.90;;;2.58;;
16478;SDS011;8350;52.316;10.530;2023-04-24T10:10:47;3.35;;;2.45;;
16478;SDS011;8350;52.316;10.530;2023-04-24T10:13:14;2.78;;;2.58;;
16478;SDS011;8350;52.316;10.530;2023-04-24T10:15:43;2.60;;;2.40;;
16478;SDS011;8350;52.316;10.530;2023-04-24T10:18:11;2.75;;;2.55;;
16478;SDS011;8350;52.316;10.530;2023-04-24T10:20:39;3.63;;;3.33;;
16478;SDS011;8350;52.316;10.530;2023-04-24T10:23:07;3.00;;;2.67;;
16478;SDS011;8350;52.316;10.530;2023-04-24T10:25:34;2.92;;;2.67;;
16478;SDS011;8350;52.316;10.530;2023-04-24T10:28:07;2.75;;;2.40;;
16478;SDS011;8350;52.316;10.530;2023-04-24T10:30:39;3.78;;;2.55;;
16478;SDS011;8350;52.316;10.530;2023-04-24T10:33:11;3.00;;;2.65;;
16478;SDS011;8350;52.316;10.530;2023-04-24T10:35:44;3.15;;;2.85;;
16478;SDS011;8350;52.316;10.530;2023-04-24T10:38:17;2.20;;;2.00;;
16478;SDS011;8350;52.316;10.530;2023-04-24T10:40:49;2.60;;;2.28;;
16478;SDS011;8350;52.316;10.530;2023-04-24T10:43:16;2.83;;;2.38;;
16478;SDS011;8350;52.316;10.530;2023-04-24T10:48:47;2.45;;;2.25;;
16478;SDS011;8350;52.316;10.530;2023-04-24T10:51:21;2.55;;;2.35;;
16478;SDS011;8350;52.316;10.530;2023-04-24T10:53:49;3.60;;;2.10;;
16478;SDS011;8350;52.316;10.530;2023-04-24T10:56:17;2.53;;;2.33;;
16478;SDS011;8350;52.316;10.530;2023-04-24T10:58:49;2.45;;;2.25;;
16478;SDS011;8350;52.316;10.530;2023-04-24T11:01:24;2.72;;;2.47;;
16478;SDS011;8350;52.316;10.530;2023-04-24T11:03:56;2.60;;;2.40;;
16478;SDS011;8350;52.316;10.530;2023-04-24T11:06:29;2.42;;;2.22;;
16478;SDS011;8350;52.316;10.530;2023-04-24T11:09:03;2.13;;;1.92;;
16478;SDS011;8350;52.316;10.530;2023-04-24T11:11:35;1.75;;;1.65;;
16478;SDS011;8350;52.316;10.530;2023-04-24T11:14:05;1.85;;;1.73;;
16478;SDS011;8350;52.316;10.530;2023-04-24T11:16:38;2.17;;;1.67;;
16478;SDS011;8350;52.316;10.530;2023-04-24T11:19:17;1.98;;;1.77;;
16478;SDS011;8350;52.316;10.530;2023-04-24T11:21:49;1.75;;;1.65;;
16478;SDS011;8350;52.316;10.530;2023-04-24T11:24:26;1.65;;;1.55;;
16478;SDS011;8350;52.316;10.530;2023-04-24T11:27:03;1.73;;;1.30;;
16478;SDS011;8350;52.316;10.530;2023-04-24T11:29:43;2.20;;;1.73;;
16478;SDS011;8350;52.316;10.530;2023-04-24T11:32:15;1.70;;;1.25;;
16478;SDS011;8350;52.316;10.530;2023-04-24T11:34:46;1.38;;;1.27;;
16478;SDS011;8350;52.316;10.530;2023-04-24T11:37:14;1.42;;;1.33;;
16478;SDS011;8350;52.316;10.530;2023-04-24T11:39:41;2.35;;;1.60;;
16478;SDS011;8350;52.316;10.530;2023-04-24T11:42:08;1.50;;;1.40;;
16478;SDS011;8350;52.316;10.530;2023-04-24T11:44:36;1.60;;;1.10;;
16478;SDS011;8350;52.316;10.530;2023-04-24T11:47:04;1.20;;;1.10;;
16478;SDS011;8350;52.316;10.530;2023-04-24T11:49:36;2.25;;;1.27;;
16478;SDS011;8350;52.316;10.530;2023-04-24T11:52:05;1.83;;;1.38;;
16478;SDS011;8350;52.316;10.530;2023-04-24T11:54:32;1.30;;;1.20;;
16478;SDS011;8350;52.316;10.530;2023-04-24T11:57:03;1.20;;;1.10;;
16478;SDS011;8350;52.316;10.530;2023-04-24T11:59:35;2.33;;;1.30;;
16478;SDS011;8350;52.316;10.530;2023-04-24T12:02:02;1.60;;;1.50;;
16478;SDS011;8350;52.316;10.530;2023-04-24T12:04:38;1.35;;;1.10;;
16478;SDS011;8350;52.316;10.530;2023-04-24T12:07:07;2.67;;;1.65;;
16478;SDS011;8350;52.316;10.530;2023-04-24T12:09:41;1.55;;;1.30;;
16478;SDS011;8350;52.316;10.530;2023-04-24T12:12:09;1.33;;;1.20;;
16478;SDS011;8350;52.316;10.530;2023-04-24T12:14:44;1.63;;;1.52;;
16478;SDS011;8350;52.316;10.530;2023-04-24T12:17:13;1.73;;;1.10;;
16478;SDS011;8350;52.316;10.530;2023-04-24T12:19:49;1.48;;;1.38;;
16478;SDS011;8350;52.316;10.530;2023-04-24T12:22:18;1.00;;;0.95;;
16478;SDS011;8350;52.316;10.530;2023-04-24T12:24:58;2.15;;;1.40;;
16478;SDS011;8350;52.316;10.530;2023-04-24T12:27:30;1.42;;;1.33;;
16478;SDS011;8350;52.316;10.530;2023-04-24T12:30:05;1.50;;;1.40;;
16478;SDS011;8350;52.316;10.530;2023-04-24T12:32:40;1.35;;;1.25;;
16478;SDS011;8350;52.316;10.530;2023-04-24T12:35:08;2.15;;;1.45;;
16478;SDS011;8350;52.316;10.530;2023-04-24T12:37:37;1.98;;;1.20;;
16478;SDS011;8350;52.316;10.530;2023-04-24T12:40:05;1.92;;;1.50;;
16478;SDS011;8350;52.316;10.530;2023-04-24T12:42:34;2.45;;;1.55;;
16478;SDS011;8350;52.316;10.530;2023-04-24T12:45:08;1.90;;;1.70;;
16478;SDS011;8350;52.316;10.530;2023-04-24T12:47:37;2.83;;;1.65;;
16478;SDS011;8350;52.316;10.530;2023-04-24T12:50:05;1.58;;;1.48;;
16478;SDS011;8350;52.316;10.530;2023-04-24T12:52:33;1.92;;;1.80;;
16478;SDS011;8350;52.316;10.530;2023-04-24T12:55:03;1.45;;;1.25;;
16478;SDS011;8350;52.316;10.530;2023-04-24T12:57:33;1.67;;;1.13;;
16478;SDS011;8350;52.316;10.530;2023-04-24T13:00:07;1.55;;;0.80;;
16478;SDS011;8350;52.316;10.530;2023-04-24T13:02:35;1.05;;;0.95;;
16478;SDS011;8350;52.316;10.530;2023-04-24T13:05:02;0.80;;;0.80;;
16478;SDS011;8350;52.316;10.530;2023-04-24T13:07:29;0.80;;;0.80;;
16478;SDS011;8350;52.316;10.530;2023-04-24T13:09:58;2.35;;;0.50;;
16478;SDS011;8350;52.316;10.530;2023-04-24T13:12:27;1.20;;;0.60;;
16478;SDS011;8350;52.316;10.530;2023-04-24T13:14:54;0.98;;;0.60;;
16478;SDS011;8350;52.316;10.530;2023-04-24T13:17:21;0.60;;;0.60;;
16478;SDS011;8350;52.316;10.530;2023-04-24T13:19:49;1.55;;;0.57;;
16478;SDS011;8350;52.316;10.530;2023-04-24T13:22:17;1.33;;;0.70;;
16478;SDS011;8350;52.316;10.530;2023-04-24T13:24:45;0.63;;;0.45;;
16478;SDS011;8350;52.316;10.530;2023-04-24T13:27:13;0.70;;;0.70;;
16478;SDS011;8350;52.316;10.530;2023-04-24T13:29:42;2.28;;;0.70;;
16478;SDS011;8350;52.316;10.530;2023-04-24T13:32:09;0.70;;;0.70;;
16478;SDS011;8350;52.316;10.530;2023-04-24T13:34:36;1.23;;;0.70;;
16478;SDS011;8350;52.316;10.530;2023-04-24T13:37:04;2.35;;;0.63;;
16478;SDS011;8350;52.316;10.530;2023-04-24T13:39:44;0.70;;;0.70;;
16478;SDS011;8350;52.316;10.530;2023-04-24T13:42:13;1.70;;;0.80;;
16478;SDS011;8350;52.316;10.530;2023-04-24T13:44:41;0.60;;;0.60;;
16478;SDS011;8350;52.316;10.530;2023-04-24T13:47:08;0.80;;;0.80;;
16478;SDS011;8350;52.316;10.530;2023-04-24T13:49:35;0.80;;;0.80;;
16478;SDS011;8350;52.316;10.530;2023-04-24T13:52:02;0.57;;;0.57;;
16478;SDS011;8350;52.316;10.530;2023-04-24T13:54:30;0.60;;;0.60;;
16478;SDS011;8350;52.316;10.530;2023-04-24T13:56:57;2.08;;;1.25;;
16478;SDS011;8350;52.316;10.530;2023-04-24T13:59:25;1.55;;;1.45;;
16478;SDS011;8350;52.316;10.530;2023-04-24T14:01:55;1.98;;;1.55;;
16478;SDS011;8350;52.316;10.530;2023-04-24T14:04:22;3.42;;;1.15;;
16478;SDS011;8350;52.316;10.530;2023-04-24T14:06:49;2.35;;;1.00;;
16478;SDS011;8350;52.316;10.530;2023-04-24T14:09:19;2.58;;;1.20;;
16478;SDS011;8350;52.316;10.530;2023-04-24T14:11:46;1.95;;;1.08;;
16478;SDS011;8350;52.316;10.530;2023-04-24T14:14:13;1.85;;;0.77;;
16478;SDS011;8350;52.316;10.530;2023-04-24T14:16:40;1.10;;;1.00;;
16478;SDS011;8350;52.316;10.530;2023-04-24T14:19:08;1.10;;;0.63;;
16478;SDS011;8350;52.316;10.530;2023-04-24T14:21:35;2.20;;;0.77;;
16478;SDS011;8350;52.316;10.530;2023-04-24T14:24:02;0.95;;;0.68;;
16478;SDS011;8350;52.316;10.530;2023-04-24T14:26:31;0.80;;;0.80;;
16478;SDS011;8350;52.316;10.530;2023-04-24T14:28:58;1.45;;;1.00;;
16478;SDS011;8350;52.316;10.530;2023-04-24T14:31:26;1.05;;;0.80;;
16478;SDS011;8350;52.316;10.530;2023-04-24T14:33:55;0.80;;;0.80;;
16478;SDS011;8350;52.316;10.530;2023-04-24T14:36:24;0.88;;;0.88;;
16478;SDS011;8350;52.316;10.530;2023-04-24T14:38:51;1.30;;;0.90;;
16478;SDS011;8350;52.316;10.530;2023-04-24T14:41:18;0.68;;;0.60;;
16478;SDS011;8350;52.316;10.530;2023-04-24T14:43:45;0.80;;;0.80;;
16478;SDS011;8350;52.316;10.530;2023-04-24T14:46:12;0.60;;;0.60;;
16478;SDS011;8350;52.316;10.530;2023-04-24T14:48:40;1.20;;;0.80;;
16478;SDS011;8350;52.316;10.530;2023-04-24T14:51:06;0.77;;;0.60;;
16478;SDS011;8350;52.316;10.530;2023-04-24T14:53:36;1.10;;;0.40;;
16478;SDS011;8350;52.316;10.530;2023-04-24T14:56:03;0.52;;;0.40;;
16478;SDS011;8350;52.316;10.530;2023-04-24T14:58:31;1.33;;;0.40;;